Time;durP1;ratioP1;P1;durP2;ratioP2;P2;SDS_P1;SDS_P2;PMS_P1;PMS_P2;Temp;Humidity;BMP_temperature;BMP_pressure;BME280_temperature;BME280_humidity;BME280_pressure;Samples;Min_cycle;Max_cycle;Signal;HPM_P1;HPM_P2
2022/01/20 00:00:55;;;;;;;4.07;3.67;;;;;;;2.15;83.64;99128.78;4992248;28;20796;-67
2022/01/20 00:03:24;;;;;;;7.00;5.27;;;;;;;2.12;83.55;99120.38;4992351;28;20042;-65
2022/01/20 00:27:15;;;;;;;8.53;4.87;;;;;;;2.07;83.55;99101.63;4995779;28;20265;-67
2022/01/20 00:33:16;;;;;;;9.63;5.60;;;;;;;2.07;83.67;99091.13;4995629;28;20147;-67
2022/01/20 00:35:19;;;;;;;8.33;5.40;;;;;;;2.09;83.51;99100.50;4983856;28;20391;-67
2022/01/20 00:37:46;;;;;;;11.97;5.53;;;;;;;2.02;83.37;99083.66;4995303;28;20266;-68
2022/01/20 00:40:12;;;;;;;12.13;5.47;;;;;;;2.01;83.48;99076.75;4995221;28;20348;-66
2022/01/20 00:42:38;;;;;;;8.43;5.53;;;;;;;2.12;83.11;99100.19;4995306;28;20402;-66
2022/01/20 00:45:04;;;;;;;12.33;6.83;;;;;;;2.13;83.36;99086.09;4995387;28;20327;-67
2022/01/20 00:47:30;;;;;;;10.03;5.30;;;;;;;2.14;83.12;99081.66;4995544;28;20265;-67
2022/01/20 00:49:55;;;;;;;9.50;5.47;;;;;;;2.08;82.66;99077.00;4995139;28;20775;-68
2022/01/20 00:52:21;;;;;;;11.73;5.77;;;;;;;2.11;82.46;99067.03;4995072;28;20030;-68
2022/01/20 00:54:46;;;;;;;10.10;5.43;;;;;;;1.98;82.24;99056.06;4994985;28;20397;-66
2022/01/20 00:57:12;;;;;;;10.83;4.93;;;;;;;2.10;82.64;99064.56;4995147;28;20038;-67
2022/01/20 00:59:38;;;;;;;6.83;4.73;;;;;;;2.14;82.53;99058.84;4995338;28;20548;-67
2022/01/20 01:02:07;;;;;;;9.33;5.73;;;;;;;2.14;82.75;99060.66;4995188;28;20030;-67
2022/01/20 01:04:33;;;;;;;8.63;5.20;;;;;;;2.14;82.48;99065.91;4995182;28;20034;-68
2022/01/20 01:09:27;;;;;;;10.13;6.50;;;;;;;2.17;82.61;99060.34;4994834;28;20038;-66
2022/01/20 01:11:57;;;;;;;12.17;5.33;;;;;;;2.18;82.89;99051.50;4994989;28;20034;-66
2022/01/20 01:14:23;;;;;;;10.33;5.53;;;;;;;2.17;82.53;99050.66;4994883;28;20097;-67
2022/01/20 01:22:21;;;;;;;8.63;5.80;;;;;;;2.13;82.92;99040.63;4994528;28;20086;-66
2022/01/20 01:24:53;;;;;;;8.20;6.17;;;;;;;2.13;82.74;99033.56;4994926;28;20273;-67
2022/01/20 01:27:21;;;;;;;9.63;6.17;;;;;;;2.06;82.30;99026.44;4994741;28;20304;-68
2022/01/20 01:30:09;;;;;;;13.13;8.15;;;;;;;2.08;82.36;99030.56;4993501;28;20293;-68
2022/01/20 01:32:48;;;;;;;9.63;6.80;;;;;;;2.02;82.47;99025.91;4994761;28;20578;-68
2022/01/20 01:35:16;;;;;;;14.00;6.20;;;;;;;2.04;82.67;99017.91;4994638;28;20807;-69
2022/01/20 01:40:10;;;;;;;8.83;6.53;;;;;;;2.04;82.72;99029.22;4994236;28;20309;-66
2022/01/20 01:42:46;;;;;;;12.32;5.68;;;;;;;2.05;82.75;99025.63;4994299;28;20481;-68
2022/01/20 01:45:25;;;;;;;9.43;5.83;;;;;;;1.85;82.64;98984.75;4994310;28;20108;-66
2022/01/20 01:47:51;;;;;;;10.57;6.43;;;;;;;2.05;82.36;99009.88;4994509;28;20278;-66
2022/01/20 01:50:17;;;;;;;11.17;6.83;;;;;;;2.00;82.47;99009.47;4994526;28;20281;-67
2022/01/20 01:52:42;;;;;;;8.80;5.87;;;;;;;2.02;82.29;99004.88;4994053;28;20061;-68
2022/01/20 01:55:09;;;;;;;12.10;5.90;;;;;;;2.04;82.24;99007.41;4993913;28;20073;-66
2022/01/20 01:57:35;;;;;;;12.30;6.77;;;;;;;1.99;82.24;99002.56;4993675;28;20430;-67
2022/01/20 02:00:06;;;;;;;8.43;5.67;;;;;;;2.02;81.83;99004.88;4994098;28;20273;-66
2022/01/20 02:02:32;;;;;;;10.03;5.20;;;;;;;1.89;82.09;98967.72;4994062;28;20065;-67
2022/01/20 02:04:58;;;;;;;9.33;6.60;;;;;;;2.02;81.66;98997.00;4993888;28;20804;-66
2022/01/20 02:18:51;;;;;;;7.20;5.47;;;;;;;2.04;81.76;98987.22;4992583;28;20745;-66
2022/01/20 02:21:17;;;;;;;9.47;5.37;;;;;;;2.05;81.79;98993.28;4992681;28;20269;-66
2022/01/20 02:23:45;;;;;;;9.57;5.47;;;;;;;2.03;81.89;98984.75;4992707;28;20261;-67
2022/01/20 02:26:10;;;;;;;9.37;6.30;;;;;;;2.01;81.74;98987.50;4992654;28;20050;-67
2022/01/20 02:28:37;;;;;;;10.03;5.10;;;;;;;1.99;81.93;98978.94;4992307;28;20744;-66
2022/01/20 02:31:03;;;;;;;9.83;5.47;;;;;;;1.95;81.72;98964.47;4991280;28;20048;-69
2022/01/20 02:33:30;;;;;;;8.87;4.70;;;;;;;1.97;81.87;98975.63;4992487;28;20324;-67
2022/01/20 02:36:08;;;;;;;14.03;6.70;;;;;;;1.92;81.40;98972.66;4992252;28;20381;-67
2022/01/20 02:38:41;;;;;;;9.77;4.97;;;;;;;1.85;81.60;98961.94;4992711;28;20270;-67
2022/01/20 02:46:37;;;;;;;9.87;5.03;;;;;;;2.01;81.77;98971.72;4992226;28;20281;-66
2022/01/20 02:49:03;;;;;;;14.07;6.27;;;;;;;1.98;81.83;98969.41;4992626;28;20360;-67
2022/01/20 02:51:30;;;;;;;11.13;5.37;;;;;;;2.00;81.47;98974.50;4992189;28;20642;-67
2022/01/20 02:53:56;;;;;;;9.83;6.13;;;;;;;1.76;81.82;98933.97;4992321;28;20768;-67
2022/01/20 02:56:21;;;;;;;11.27;6.13;;;;;;;1.94;82.01;98954.13;4992480;28;20789;-69
2022/01/20 02:58:48;;;;;;;12.97;6.80;;;;;;;1.50;81.79;98884.06;4992152;28;20348;-67
2022/01/20 03:01:14;;;;;;;12.57;6.97;;;;;;;1.92;81.68;98945.56;4990976;28;20034;-67
2022/01/20 03:03:39;;;;;;;11.73;7.43;;;;;;;1.90;81.73;98942.28;4990770;28;20372;-68
2022/01/20 03:06:05;;;;;;;12.43;7.37;;;;;;;1.78;81.88;98918.09;4992015;28;20689;-66
2022/01/20 03:08:31;;;;;;;13.60;6.63;;;;;;;1.86;82.17;98926.84;4869281;28;3551481;-68
2022/01/20 03:11:03;;;;;;;14.87;7.63;;;;;;;1.79;82.06;98914.47;4992739;28;20038;-67
2022/01/20 03:13:29;;;;;;;11.03;7.57;;;;;;;1.78;82.29;98904.97;4992647;28;20268;-67
2022/01/20 03:15:54;;;;;;;12.97;8.00;;;;;;;1.78;82.17;98883.97;4992506;28;20046;-66
2022/01/20 03:18:20;;;;;;;9.43;6.20;;;;;;;1.73;82.54;98862.56;4992649;28;20042;-67
2022/01/20 03:20:45;;;;;;;11.60;7.13;;;;;;;1.74;82.18;98874.75;4992503;28;20343;-69
2022/01/20 03:23:11;;;;;;;13.63;7.87;;;;;;;1.79;82.16;98877.72;4992577;28;20049;-67
2022/01/20 03:25:36;;;;;;;20.77;8.10;;;;;;;1.78;82.26;98884.78;4992778;28;20031;-68
2022/01/20 03:28:02;;;;;;;9.27;6.83;;;;;;;1.81;82.53;98904.66;4992659;28;20133;-68
2022/01/20 03:30:28;;;;;;;16.10;7.77;;;;;;;1.80;82.26;98903.81;4992707;28;20105;-67
2022/01/20 03:32:53;;;;;;;12.67;7.80;;;;;;;1.81;82.22;98891.53;4993069;28;20337;-68
2022/01/20 03:35:24;;;;;;;14.57;7.43;;;;;;;1.81;81.51;98902.03;4992152;28;20049;-66
2022/01/20 03:37:50;;;;;;;14.47;8.30;;;;;;;1.78;82.07;98904.97;4991280;28;20261;-67
2022/01/20 03:40:17;;;;;;;8.93;7.50;;;;;;;1.73;81.39;98888.81;4991422;28;20394;-66
2022/01/20 03:42:43;;;;;;;12.83;7.40;;;;;;;1.68;81.60;98885.84;4992388;28;20046;-67
2022/01/20 03:45:09;;;;;;;19.30;9.17;;;;;;;1.82;81.51;98911.53;4992756;28;20277;-67
2022/01/20 03:47:34;;;;;;;13.60;7.50;;;;;;;1.70;81.78;98878.63;4993036;28;20053;-66
2022/01/20 03:52:26;;;;;;;17.30;7.57;;;;;;;1.78;81.45;98886.59;4993664;28;20039;-67
2022/01/20 03:54:52;;;;;;;15.50;8.00;;;;;;;1.70;81.71;98894.38;4996373;28;20113;-68
2022/01/20 03:57:18;;;;;;;13.20;7.50;;;;;;;1.69;81.75;98883.06;4996489;28;20332;-69
2022/01/20 03:59:44;;;;;;;11.27;8.13;;;;;;;1.61;81.19;98869.06;4996392;28;20345;-66
2022/01/20 04:02:10;;;;;;;13.50;7.87;;;;;;;1.72;81.56;98876.69;4995838;28;20445;-69
2022/01/20 04:04:36;;;;;;;19.57;9.17;;;;;;;1.69;81.28;98866.47;4995750;28;20273;-66
2022/01/20 04:07:03;;;;;;;12.77;7.37;;;;;;;1.72;80.71;98871.44;4995806;28;20502;-67
2022/01/20 04:09:28;;;;;;;15.20;7.77;;;;;;;1.74;80.72;98866.88;4995599;28;20406;-67
2022/01/20 04:11:54;;;;;;;12.77;7.20;;;;;;;1.62;80.63;98850.53;4995829;28;20285;-67
2022/01/20 04:14:23;;;;;;;15.33;8.33;;;;;;;1.66;80.58;98856.28;4996098;28;20429;-67
2022/01/20 04:19:17;;;;;;;14.80;8.25;;;;;;;1.63;80.08;98853.97;4995791;28;19925;-67
2022/01/20 04:21:43;;;;;;;13.67;8.30;;;;;;;1.68;80.04;98854.34;4995592;28;20039;-67
2022/01/20 04:24:10;;;;;;;15.97;7.73;;;;;;;1.50;79.88;98831.59;4995746;28;20285;-68
2022/01/20 04:26:38;;;;;;;14.57;8.37;;;;;;;1.62;80.08;98849.72;4995738;28;20038;-67
2022/01/20 04:29:05;;;;;;;18.95;8.52;;;;;;;1.50;79.92;98826.34;4994410;28;20281;-71
2022/01/20 04:31:32;;;;;;;12.17;8.53;;;;;;;1.63;79.60;98831.19;4995473;28;20042;-71
2022/01/20 04:33:59;;;;;;;16.53;8.60;;;;;;;1.64;79.36;98832.00;4995523;28;20276;-68
2022/01/20 04:36:26;;;;;;;11.40;7.50;;;;;;;1.41;79.31;98798.38;4995374;28;20795;-68
2022/01/20 04:38:52;;;;;;;9.43;7.57;;;;;;;1.64;79.65;98842.50;4995276;28;20364;-69
2022/01/20 04:41:19;;;;;;;9.43;7.47;;;;;;;1.57;79.29;98830.97;4995274;28;20269;-67
2022/01/20 04:43:45;;;;;;;11.47;6.70;;;;;;;1.59;78.65;98834.28;4995348;28;20288;-70
2022/01/20 04:59:32;;;;;;;11.80;7.57;;;;;;;1.67;77.85;98847.44;4995030;28;20278;-67
2022/01/20 05:01:57;;;;;;;14.23;7.97;;;;;;;1.66;78.31;98841.38;4994846;28;20276;-68
2022/01/20 05:04:24;;;;;;;12.17;7.20;;;;;;;1.72;77.79;98840.75;4993555;28;20402;-68
2022/01/20 05:06:53;;;;;;;10.07;6.40;;;;;;;1.67;77.79;98827.28;4994851;28;20058;-68
2022/01/20 05:09:20;;;;;;;23.92;7.72;;;;;;;1.67;77.68;98831.69;4994181;28;20376;-69
2022/01/20 05:11:51;;;;;;;11.67;7.83;;;;;;;1.48;78.07;98791.56;4994781;28;20050;-70
2022/01/20 05:14:17;;;;;;;15.00;7.17;;;;;;;1.63;77.83;98819.88;4994704;28;20281;-69
2022/01/20 05:16:42;;;;;;;15.13;7.00;;;;;;;1.54;77.64;98796.22;4994834;28;20301;-68
2022/01/20 05:19:08;;;;;;;8.53;6.30;;;;;;;1.69;77.13;98814.81;4993426;28;20677;-67
2022/01/20 05:21:34;;;;;;;11.40;7.13;;;;;;;1.70;77.13;98813.84;4994720;28;20081;-68
2022/01/20 05:23:59;;;;;;;13.70;7.07;;;;;;;1.59;77.42;98802.78;4995364;28;20054;-70
2022/01/20 05:26:25;;;;;;;9.67;6.43;;;;;;;1.64;77.15;98814.47;4994345;28;20046;-69
2022/01/20 05:28:50;;;;;;;13.40;7.17;;;;;;;1.66;77.62;98816.94;4993343;28;20108;-70
2022/01/20 05:31:15;;;;;;;8.27;6.43;;;;;;;1.67;77.38;98822.03;4993923;28;20042;-71
2022/01/20 05:33:41;;;;;;;13.20;7.40;;;;;;;1.67;77.71;98813.34;4994149;28;20038;-67
2022/01/20 05:36:07;;;;;;;10.13;7.23;;;;;;;1.74;77.46;98824.88;4992477;28;20104;-67
2022/01/20 05:38:36;;;;;;;14.87;6.53;;;;;;;1.68;77.29;98823.69;4994071;28;20047;-66
2022/01/20 05:41:01;;;;;;;11.57;7.20;;;;;;;1.65;76.92;98818.75;4993117;28;20273;-76
2022/01/20 05:43:27;;;;;;;12.03;7.20;;;;;;;1.76;76.97;98826.38;4994165;28;20125;-70
2022/01/20 05:45:52;;;;;;;11.13;7.07;;;;;;;1.68;76.92;98812.34;4994010;28;20184;-65
2022/01/20 05:48:31;;;;;;;12.57;6.43;;;;;;;1.65;76.43;98802.16;4993829;28;20037;-68
2022/01/20 05:50:56;;;;;;;10.68;6.70;;;;;;;1.67;76.87;98802.84;4994339;28;20084;-68
2022/01/20 05:53:22;;;;;;;19.60;8.50;;;;;;;1.72;76.54;98816.31;4992968;28;20058;-71
2022/01/20 05:55:47;;;;;;;10.17;7.00;;;;;;;1.51;76.82;98775.53;4992802;28;20484;-69
2022/01/20 05:58:13;;;;;;;11.80;6.80;;;;;;;1.69;76.95;98793.84;4994876;28;20038;-66
2022/01/20 06:00:38;;;;;;;14.40;8.33;;;;;;;1.67;76.88;98787.91;4999493;28;20046;-67
2022/01/20 06:05:49;;;;;;;14.20;6.90;;;;;;;1.66;77.02;98786.28;4994702;28;20042;-71
2022/01/20 06:08:16;;;;;;;12.07;6.93;;;;;;;1.67;76.65;98789.72;4993656;28;20293;-67
2022/01/20 06:10:42;;;;;;;10.43;7.30;;;;;;;1.67;77.22;98773.97;4992696;28;20089;-70
2022/01/20 06:13:07;;;;;;;12.80;6.63;;;;;;;1.60;76.89;98772.94;5000424;28;20258;-67
2022/01/20 06:15:33;;;;;;;11.63;6.90;;;;;;;1.60;77.00;98778.19;5004231;28;20140;-64
2022/01/20 06:17:59;;;;;;;15.83;7.37;;;;;;;1.61;76.42;98779.84;4996248;28;20064;-64
2022/01/20 06:20:24;;;;;;;14.13;8.13;;;;;;;1.55;76.80;98776.88;4994637;28;20038;-67
2022/01/20 06:22:50;;;;;;;11.10;6.73;;;;;;;1.53;76.91;98773.56;4992414;28;20049;-68
2022/01/20 06:25:15;;;;;;;9.30;6.50;;;;;;;1.59;76.11;98784.44;4992297;28;20037;-65
2022/01/20 06:27:41;;;;;;;13.80;7.77;;;;;;;1.61;76.76;98779.84;4993359;28;20121;-66
2022/01/20 06:30:07;;;;;;;10.33;6.40;;;;;;;1.63;76.73;98768.22;4993339;28;20088;-64
2022/01/20 06:32:34;;;;;;;12.17;8.23;;;;;;;1.57;76.53;98762.78;4993100;28;20043;-65
2022/01/20 06:35:01;;;;;;;12.13;7.07;;;;;;;1.67;76.29;98766.94;4993544;28;20375;-69
2022/01/20 06:37:26;;;;;;;13.10;6.70;;;;;;;1.66;75.96;98761.84;4993061;28;20709;-70
2022/01/20 06:39:57;;;;;;;10.73;6.50;;;;;;;1.68;75.79;98765.13;4993567;28;20284;-66
2022/01/20 06:42:23;;;;;;;17.37;8.37;;;;;;;1.67;76.12;98766.94;4993356;28;20638;-72
2022/01/20 06:44:48;;;;;;;12.77;7.10;;;;;;;1.58;75.86;98746.88;4993580;28;20040;-71
2022/01/20 06:47:14;;;;;;;12.23;7.60;;;;;;;1.69;76.15;98761.53;4993509;28;20034;-69
2022/01/20 06:49:39;;;;;;;26.13;10.07;;;;;;;1.63;75.90;98751.66;4992416;28;20038;-67
2022/01/20 06:52:05;;;;;;;16.50;8.43;;;;;;;1.62;76.62;98761.31;4993333;28;20041;-68
2022/01/20 06:54:31;;;;;;;13.67;7.47;;;;;;;1.49;76.65;98748.63;4993366;28;20043;-69
2022/01/20 06:56:59;;;;;;;11.23;7.17;;;;;;;1.54;75.98;98754.22;4993172;28;20774;-70
2022/01/20 06:59:25;;;;;;;13.07;8.03;;;;;;;1.57;76.79;98753.09;4991455;28;20042;-68
2022/01/20 07:01:50;;;;;;;12.73;7.83;;;;;;;1.64;76.86;98742.81;4992995;28;20281;-69
2022/01/20 07:04:16;;;;;;;14.03;9.03;;;;;;;1.64;76.20;98753.28;4993074;28;20057;-72
2022/01/20 07:06:42;;;;;;;10.80;7.03;;;;;;;1.63;75.73;98752.47;4993154;28;20097;-70
2022/01/20 07:09:09;;;;;;;11.17;8.27;;;;;;;1.65;76.31;98755.75;4993169;28;20049;-70
2022/01/20 07:11:35;;;;;;;21.40;12.53;;;;;;;1.58;76.05;98743.44;4993317;28;20042;-70
2022/01/20 07:14:01;;;;;;;10.50;7.17;;;;;;;1.63;76.08;98741.16;4993177;28;20287;-69
2022/01/20 07:16:28;;;;;;;24.80;15.70;;;;;;;1.48;76.96;98733.03;4993153;28;20405;-72
2022/01/20 07:18:54;;;;;;;11.33;8.67;;;;;;;1.55;76.63;98740.13;4993129;28;20672;-71
2022/01/20 07:21:20;;;;;;;15.20;9.73;;;;;;;1.60;76.69;98744.09;4992750;28;20269;-68
2022/01/20 07:23:45;;;;;;;17.17;8.77;;;;;;;1.52;76.30;98735.19;4993099;28;20038;-69
2022/01/20 07:26:11;;;;;;;12.17;8.40;;;;;;;1.58;76.31;98743.44;4992787;28;20348;-68
2022/01/20 07:28:36;;;;;;;12.50;8.77;;;;;;;1.51;76.46;98725.69;4995898;28;20405;-70
2022/01/20 07:31:02;;;;;;;13.83;8.73;;;;;;;1.60;76.45;98746.72;4995484;28;20030;-67
2022/01/20 07:33:28;;;;;;;13.87;9.23;;;;;;;1.42;76.17;98734.47;4996430;28;20042;-66
2022/01/20 07:35:53;;;;;;;17.03;9.03;;;;;;;1.46;76.43;98733.19;4995321;28;20034;-73
2022/01/20 07:38:19;;;;;;;13.63;8.43;;;;;;;1.27;76.26;98714.22;4995660;28;20038;-73
2022/01/20 07:40:46;;;;;;;12.17;8.17;;;;;;;1.52;76.17;98742.25;4996512;28;20089;-70
2022/01/20 07:43:12;;;;;;;17.03;10.17;;;;;;;1.46;76.50;98735.81;4996238;28;20309;-68
2022/01/20 07:45:38;;;;;;;12.10;8.73;;;;;;;1.47;76.49;98726.97;4996466;28;20058;-68
2022/01/20 07:48:03;;;;;;;10.07;7.83;;;;;;;1.57;76.52;98732.09;4995295;28;20046;-69
2022/01/20 07:50:29;;;;;;;14.40;9.00;;;;;;;1.60;76.52;98720.47;4996351;28;20034;-71
2022/01/20 07:52:55;;;;;;;17.80;8.80;;;;;;;1.57;76.38;98726.03;4996300;28;20038;-71
2022/01/20 07:55:20;;;;;;;14.20;8.67;;;;;;;1.31;76.19;98692.75;4996330;28;20038;-74
2022/01/20 07:57:46;;;;;;;17.17;9.03;;;;;;;1.54;76.47;98709.63;4996455;28;20118;-68
2022/01/20 08:00:12;;;;;;;12.73;9.47;;;;;;;1.44;76.22;98701.03;4996232;28;20576;-68
2022/01/20 08:02:38;;;;;;;14.00;10.40;;;;;;;1.46;76.52;98706.97;4996176;28;20556;-68
2022/01/20 08:05:04;;;;;;;11.17;8.80;;;;;;;1.42;76.47;98691.66;4996115;28;20356;-72
2022/01/20 08:07:31;;;;;;;14.00;9.33;;;;;;;1.47;76.28;98685.00;4996069;28;20050;-71
2022/01/20 08:09:58;;;;;;;15.03;10.97;;;;;;;1.57;76.33;98694.56;4994641;28;20292;-71
2022/01/20 08:12:28;;;;;;;12.23;8.30;;;;;;;1.50;75.86;98674.19;4996010;28;20277;-75
2022/01/20 08:14:54;;;;;;;14.30;10.70;;;;;;;1.50;76.13;98689.13;4995995;28;20360;-71
2022/01/20 08:17:21;;;;;;;18.90;11.47;;;;;;;1.45;76.46;98681.72;4994905;28;20297;-72
2022/01/20 08:19:47;;;;;;;22.73;12.27;;;;;;;1.52;77.13;98687.97;4995781;28;20277;-70
2022/01/20 08:22:12;;;;;;;30.17;15.67;;;;;;;1.53;77.48;98679.13;4996012;28;20261;-72
2022/01/20 08:24:39;;;;;;;15.60;10.57;;;;;;;1.47;78.08;98684.19;4995579;28;20327;-71
2022/01/20 08:27:04;;;;;;;14.97;10.23;;;;;;;1.38;78.66;98683.28;5010971;28;20044;-71
2022/01/20 08:29:30;;;;;;;18.33;12.23;;;;;;;1.32;78.67;98678.66;4978366;28;20269;-72
2022/01/20 08:31:56;;;;;;;18.77;11.97;;;;;;;1.45;78.92;98692.22;4996062;28;20494;-68
2022/01/20 08:34:22;;;;;;;16.17;12.03;;;;;;;1.24;79.14;98650.59;4995427;28;20030;-70
2022/01/20 08:36:49;;;;;;;20.23;11.70;;;;;;;1.37;79.81;98667.72;4997555;28;20290;-70
2022/01/20 08:41:55;;;;;;;23.60;13.87;;;;;;;1.41;80.08;98669.03;4996426;28;20297;-72
2022/01/20 08:44:21;;;;;;;24.20;13.47;;;;;;;1.45;80.03;98668.59;4997733;28;20749;-69
2022/01/20 08:46:47;;;;;;;15.40;11.13;;;;;;;1.39;80.15;98656.09;4997012;28;20038;-69
2022/01/20 08:49:13;;;;;;;16.00;10.50;;;;;;;1.37;79.73;98650.19;4996604;28;20085;-68
2022/01/20 08:51:40;;;;;;;19.60;12.80;;;;;;;1.53;80.42;98668.63;4996829;28;20096;-69
2022/01/20 08:54:06;;;;;;;18.83;12.50;;;;;;;1.45;79.84;98638.94;4997188;28;20336;-71
2022/01/20 08:56:34;;;;;;;17.13;11.60;;;;;;;1.45;79.36;98642.38;5011958;28;20301;-72
2022/01/20 08:59:05;;;;;;;18.10;13.95;;;;;;;1.60;79.64;98662.75;4997245;28;20042;-71
2022/01/20 09:01:32;;;;;;;17.90;12.27;;;;;;;1.61;79.61;98653.91;4995828;28;20461;-71
2022/01/20 09:03:58;;;;;;;17.37;11.80;;;;;;;1.65;79.22;98647.38;4995352;28;20769;-69
2022/01/20 09:06:26;;;;;;;21.00;12.63;;;;;;;1.76;79.04;98662.84;4994652;28;20273;-69
2022/01/20 09:08:52;;;;;;;17.80;11.60;;;;;;;1.58;79.04;98638.47;4995141;28;20088;-68
2022/01/20 09:11:30;;;;;;;17.83;12.90;;;;;;;1.61;79.26;98643.41;4995730;28;20117;-72
2022/01/20 09:16:42;;;;;;;19.13;12.23;;;;;;;1.42;80.28;98629.53;4995726;28;20362;-73
2022/01/20 09:19:09;;;;;;;20.23;13.00;;;;;;;1.47;80.43;98640.41;4995775;28;20269;-66
2022/01/20 09:21:34;;;;;;;20.93;12.97;;;;;;;1.46;80.91;98617.78;4996438;28;20272;-73
2022/01/20 09:24:00;;;;;;;22.67;13.03;;;;;;;1.48;80.52;98618.44;4995888;28;20266;-66
2022/01/20 09:26:26;;;;;;;21.03;14.43;;;;;;;1.51;79.86;98618.13;4995562;28;20038;-70
2022/01/20 09:28:51;;;;;;;21.50;14.70;;;;;;;1.52;79.96;98625.03;4994029;28;20413;-71
2022/01/20 09:31:22;;;;;;;20.90;12.23;;;;;;;1.63;80.51;98647.53;4995262;28;20065;-67
2022/01/20 09:33:48;;;;;;;22.90;15.70;;;;;;;1.63;80.40;98641.44;4993925;28;20057;-68
2022/01/20 09:36:13;;;;;;;23.17;14.33;;;;;;;1.59;80.21;98634.88;4996629;28;20277;-69
2022/01/20 09:38:39;;;;;;;21.07;14.27;;;;;;;1.51;79.94;98630.44;4994948;28;20060;-70
2022/01/20 09:41:05;;;;;;;21.17;15.10;;;;;;;1.39;80.28;98608.88;4995505;28;20042;-70
2022/01/20 09:43:33;;;;;;;20.40;14.23;;;;;;;1.45;80.10;98624.00;5011403;28;20130;-70
2022/01/20 09:45:59;;;;;;;20.03;13.47;;;;;;;1.38;80.51;98612.47;4998043;28;20269;-73
2022/01/20 09:48:27;;;;;;;19.57;13.90;;;;;;;1.43;81.00;98617.25;4996659;28;20324;-72
2022/01/20 09:50:53;;;;;;;21.67;14.13;;;;;;;1.39;80.93;98619.38;4992877;28;20331;-70
2022/01/20 09:53:19;;;;;;;22.23;13.63;;;;;;;1.42;80.76;98615.59;5009822;28;20266;-72
2022/01/20 09:55:46;;;;;;;25.60;15.83;;;;;;;1.28;81.03;98600.47;4998536;28;20351;-72
2022/01/20 09:58:12;;;;;;;26.47;15.50;;;;;;;1.17;81.02;98577.97;4998207;28;20308;-72
2022/01/20 10:00:41;;;;;;;20.40;14.90;;;;;;;1.40;81.48;98613.13;4997454;28;20325;-70
2022/01/20 10:03:12;;;;;;;21.98;14.93;;;;;;;1.27;81.62;98604.06;4998732;28;20276;-71
2022/01/20 10:05:48;;;;;;;23.90;14.50;;;;;;;1.11;81.83;98578.56;4998679;28;20045;-72
2022/01/20 10:08:16;;;;;;;21.27;12.80;;;;;;;1.29;82.43;98612.59;4999426;28;20297;-70
2022/01/20 10:10:54;;;;;;;18.85;13.85;;;;;;;1.29;82.32;98607.34;4997191;28;20634;-68
2022/01/20 10:13:27;;;;;;;26.40;16.35;;;;;;;1.26;82.32;98605.06;4996281;28;20041;-70
2022/01/20 10:16:04;;;;;;;20.93;13.73;;;;;;;1.29;82.51;98602.13;4995085;28;20050;-72
2022/01/20 10:18:32;;;;;;;18.53;13.43;;;;;;;1.37;82.34;98616.09;4994758;28;20274;-69
2022/01/20 10:21:04;;;;;;;23.27;15.13;;;;;;;1.39;81.58;98603.63;4992901;28;20264;-68
2022/01/20 10:23:37;;;;;;;22.23;14.13;;;;;;;1.43;82.46;98604.97;4994701;28;20270;-69
2022/01/20 10:26:05;;;;;;;22.17;14.87;;;;;;;1.38;81.90;98591.50;4994332;28;20756;-70
2022/01/20 10:28:44;;;;;;;25.50;15.57;;;;;;;1.42;82.08;98594.63;4994453;28;20343;-69
2022/01/20 10:31:11;;;;;;;22.23;14.75;;;;;;;1.41;82.24;98592.97;4993796;28;20645;-68
2022/01/20 10:33:43;;;;;;;27.17;15.10;;;;;;;1.15;82.29;98561.56;5009304;28;20108;-68
2022/01/20 10:36:13;;;;;;;24.77;16.17;;;;;;;1.17;82.39;98576.19;4993574;28;20380;-70
2022/01/20 10:39:08;;;;;;;24.60;15.63;;;;;;;1.29;82.51;98591.63;4993524;28;20273;-69
2022/01/20 10:41:38;;;;;;;22.53;15.03;;;;;;;1.30;82.84;98588.84;4972924;28;20320;-68
2022/01/20 10:44:08;;;;;;;22.73;14.93;;;;;;;1.27;82.84;98581.28;4992437;28;20376;-60
2022/01/20 10:46:49;;;;;;;21.87;14.30;;;;;;;1.34;82.45;98582.31;4992062;28;20258;-64
2022/01/20 10:49:15;;;;;;;24.03;14.43;;;;;;;1.31;82.23;98587.03;4993665;28;20308;-69
2022/01/20 10:51:42;;;;;;;23.57;13.83;;;;;;;1.24;82.53;98574.56;5008604;28;20312;-71
2022/01/20 10:54:13;;;;;;;24.80;13.60;;;;;;;1.35;82.68;98585.75;4993254;28;20269;-77
2022/01/20 10:56:57;;;;;;;21.47;12.07;;;;;;;1.28;82.27;98575.06;4993751;28;20301;-74
2022/01/20 10:59:24;;;;;;;20.13;12.17;;;;;;;1.16;82.80;98571.09;4993319;28;20637;-72
2022/01/20 11:01:58;;;;;;;22.27;13.10;;;;;;;1.02;82.95;98548.88;4993401;28;20270;-71
2022/01/20 11:04:24;;;;;;;26.70;14.27;;;;;;;1.26;83.06;98576.22;4992192;28;20264;-71
2022/01/20 11:06:54;;;;;;;21.57;13.00;;;;;;;1.19;83.02;98571.59;4992657;28;20289;-65
2022/01/20 11:09:21;;;;;;;18.87;13.20;;;;;;;1.12;83.04;98570.56;4992785;28;20050;-62
2022/01/20 11:11:48;;;;;;;22.90;13.70;;;;;;;1.09;83.24;98570.88;4992406;28;20280;-61
2022/01/20 11:14:15;;;;;;;25.17;14.27;;;;;;;1.07;83.52;98556.28;4992779;28;20300;-67
2022/01/20 11:16:41;;;;;;;20.73;13.13;;;;;;;1.04;83.68;98556.59;4992648;28;20297;-65
2022/01/20 11:19:15;;;;;;;22.27;14.03;;;;;;;1.09;84.09;98560.38;5007932;28;20273;-67
2022/01/20 11:21:43;;;;;;;17.10;12.70;;;;;;;1.13;83.88;98559.09;4992481;28;20313;-65
2022/01/20 11:24:21;;;;;;;18.98;12.07;;;;;;;1.23;83.88;98567.69;4992378;28;20276;-64
2022/01/20 11:26:57;;;;;;;17.97;12.67;;;;;;;1.22;83.82;98555.56;4992837;28;20034;-66
2022/01/20 11:29:36;;;;;;;16.93;11.53;;;;;;;1.13;83.56;98547.78;4992603;28;20276;-64
2022/01/20 11:32:02;;;;;;;;;;;;;;;1.23;83.56;98556.38;4992869;28;20269;-68
2022/01/20 11:34:28;;;;;;;16.77;11.90;;;;;;;1.19;83.56;98555.03;4992208;28;19918;-63
2022/01/20 11:36:53;;;;;;;18.10;12.00;;;;;;;1.15;83.56;98556.31;4990990;28;20409;-65
2022/01/20 11:39:24;;;;;;;19.73;12.00;;;;;;;1.01;83.65;98541.19;4992831;28;20046;-67
2022/01/20 11:41:50;;;;;;;21.00;11.77;;;;;;;0.97;84.04;98550.34;4992335;28;20081;-65
2022/01/20 11:44:41;;;;;;;19.30;12.37;;;;;;;1.01;84.26;98549.88;4991703;28;20321;-66
2022/01/20 11:47:09;;;;;;;19.53;12.47;;;;;;;1.02;84.17;98537.59;4992692;28;20328;-64
2022/01/20 11:49:38;;;;;;;20.53;13.13;;;;;;;1.10;84.27;98550.72;4992388;28;20278;-64
2022/01/20 11:52:04;;;;;;;18.73;12.35;;;;;;;1.08;83.98;98547.44;4992467;28;20700;-65
2022/01/20 11:54:35;;;;;;;14.63;10.53;;;;;;;1.04;84.08;98540.88;4992333;28;20042;-67
2022/01/20 11:57:11;;;;;;;14.67;10.47;;;;;;;1.04;84.33;98538.25;4992040;28;20034;-66
2022/01/20 11:59:50;;;;;;;20.00;12.73;;;;;;;0.93;84.45;98521.81;4986247;28;20265;-64
2022/01/20 12:02:28;;;;;;;14.30;10.93;;;;;;;1.08;84.64;98543.00;4972825;28;20745;-65
2022/01/20 12:04:54;;;;;;;17.53;11.97;;;;;;;1.10;84.43;98535.81;4972727;28;20043;-68
2022/01/20 12:07:29;;;;;;;17.37;11.77;;;;;;;0.87;83.64;98506.72;4972602;28;20845;-68
2022/01/20 12:10:14;;;;;;;17.87;11.00;;;;;;;1.11;84.26;98537.44;4980736;28;20046;-68
2022/01/20 12:12:41;;;;;;;18.37;12.90;;;;;;;1.04;83.94;98539.06;4992274;28;20336;-66
2022/01/20 12:15:08;;;;;;;18.57;12.30;;;;;;;0.93;84.48;98529.69;4992859;28;20280;-66
2022/01/20 12:17:33;;;;;;;17.50;12.50;;;;;;;1.02;84.98;98537.59;4974678;28;20298;-64
2022/01/20 12:19:59;;;;;;;20.57;12.07;;;;;;;0.98;84.73;98528.38;4992845;28;20336;-67
2022/01/20 12:22:24;;;;;;;21.20;13.07;;;;;;;0.99;84.46;98532.66;4995201;28;20092;-64
2022/01/20 12:24:56;;;;;;;18.27;11.83;;;;;;;0.91;85.00;98539.50;4995531;28;20089;-65
2022/01/20 12:27:23;;;;;;;15.90;10.77;;;;;;;0.79;85.41;98511.91;4995275;28;20038;-62
2022/01/20 12:29:49;;;;;;;15.50;11.47;;;;;;;0.85;85.24;98519.13;4995764;28;20265;-63
2022/01/20 12:32:18;;;;;;;17.47;12.27;;;;;;;0.84;85.26;98508.81;4995491;28;20301;-65
2022/01/20 12:34:44;;;;;;;19.52;12.65;;;;;;;0.88;85.01;98521.47;4995008;28;20357;-67
2022/01/20 12:37:10;;;;;;;17.30;10.20;;;;;;;0.86;85.40;98514.72;4974030;28;20082;-67
2022/01/20 12:39:39;;;;;;;15.63;10.53;;;;;;;0.93;85.07;98529.69;4975025;28;20266;-66
2022/01/20 12:42:11;;;;;;;14.82;11.05;;;;;;;0.88;85.02;98518.03;4975877;28;20038;-63
2022/01/20 12:45:01;;;;;;;14.60;10.57;;;;;;;0.88;84.87;98516.22;4975741;28;20079;-72
2022/01/20 12:47:28;;;;;;;18.73;11.70;;;;;;;0.75;84.78;98505.34;4974271;28;20284;-68
2022/01/20 12:49:59;;;;;;;16.47;9.50;;;;;;;0.92;84.54;98533.28;4975507;28;20661;-69
2022/01/20 12:52:25;;;;;;;15.63;10.17;;;;;;;0.83;85.14;98523.72;4975601;28;20282;-73